Time;durP1;ratioP1;P1;durP2;ratioP2;P2;SDS_P1;SDS_P2;PMS_P1;PMS_P2;Temp;Humidity;BMP_temperature;BMP_pressure;BME280_temperature;BME280_humidity;BME280_pressure;Samples;Min_cycle;Max_cycle;Signal;HPM_P1;HPM_P2
2022/11/17 00:00:19;;;;;;;6.87;6.27;;;6.50;99.90;;;;;;4971608;28;20557;-71
2022/11/17 00:02:46;;;;;;;6.10;5.70;;;6.50;99.90;;;;;;4971325;28;20306;-71
2022/11/17 00:05:13;;;;;;;6.63;5.60;;;6.50;99.90;;;;;;4970764;28;20243;-71
2022/11/17 00:07:42;;;;;;;5.70;5.20;;;6.60;99.90;;;;;;4971105;28;20207;-71
2022/11/17 00:10:09;;;;;;;5.87;5.47;;;6.50;99.90;;;;;;4971307;28;20217;-72
2022/11/17 00:15:21;;;;;;;6.43;5.93;;;6.40;99.90;;;;;;4971047;28;20198;-71
2022/11/17 00:17:48;;;;;;;5.97;5.57;;;6.40;99.90;;;;;;4971254;28;20221;-71
2022/11/17 00:23:01;;;;;;;6.23;5.73;;;6.40;99.90;;;;;;4970134;28;20202;-71
2022/11/17 00:25:28;;;;;;;6.30;5.83;;;6.40;99.90;;;;;;4971076;28;20301;-71
2022/11/17 00:27:54;;;;;;;6.37;5.87;;;6.40;99.90;;;;;;4970667;28;20211;-71
2022/11/17 00:35:54;;;;;;;6.60;6.00;;;6.30;99.90;;;;;;4970503;28;20755;-72
2022/11/17 00:38:22;;;;;;;6.73;6.13;;;6.30;99.90;;;;;;4970567;28;20966;-71
2022/11/17 00:40:49;;;;;;;6.77;6.20;;;6.30;99.90;;;;;;4970842;28;20211;-71
2022/11/17 00:43:15;;;;;;;6.33;5.93;;;6.20;99.90;;;;;;4970355;28;20768;-71
2022/11/17 00:45:42;;;;;;;6.17;5.77;;;6.20;99.90;;;;;;4969793;28;20338;-71
2022/11/17 00:48:09;;;;;;;7.03;6.43;;;6.20;99.90;;;;;;4970559;28;20215;-71
2022/11/17 00:50:36;;;;;;;8.10;6.60;;;6.20;99.90;;;;;;4970724;28;20262;-71
2022/11/17 00:53:03;;;;;;;6.80;6.20;;;6.20;99.90;;;;;;4970782;28;20238;-71
2022/11/17 00:55:31;;;;;;;7.20;6.60;;;6.10;99.90;;;;;;4970390;28;20252;-71
2022/11/17 00:57:58;;;;;;;7.77;6.47;;;6.10;99.90;;;;;;4970378;28;20294;-71
2022/11/17 01:00:25;;;;;;;6.90;6.37;;;6.10;99.90;;;;;;4969928;28;20211;-71
2022/11/17 01:02:52;;;;;;;6.80;6.20;;;6.10;99.90;;;;;;4970581;28;20209;-71
2022/11/17 01:05:18;;;;;;;6.17;5.63;;;6.10;99.90;;;;;;4969986;28;20358;-71
2022/11/17 01:07:46;;;;;;;6.90;6.40;;;6.10;99.90;;;;;;4970270;28;20673;-71
2022/11/17 01:10:13;;;;;;;6.63;6.03;;;6.10;99.90;;;;;;4970502;28;20219;-71
2022/11/17 01:12:41;;;;;;;6.40;5.90;;;6.10;99.90;;;;;;4969783;28;20779;-71
2022/11/17 01:15:09;;;;;;;6.67;6.17;;;6.10;99.90;;;;;;4969690;28;20294;-71
2022/11/17 01:17:36;;;;;;;7.03;6.53;;;6.10;99.90;;;;;;4970153;28;20298;-70
2022/11/17 01:20:04;;;;;;;7.37;6.60;;;6.10;99.90;;;;;;4970178;28;20245;-71
2022/11/17 01:22:31;;;;;;;6.63;6.13;;;6.10;99.90;;;;;;4970176;28;20294;-71
2022/11/17 01:24:57;;;;;;;6.03;5.63;;;6.10;99.90;;;;;;4969908;28;20217;-71
2022/11/17 01:27:24;;;;;;;7.00;6.50;;;6.00;99.90;;;;;;4970286;28;20206;-71
2022/11/17 01:29:52;;;;;;;6.47;6.00;;;6.00;99.90;;;;;;4969408;28;20728;-72
2022/11/17 01:32:19;;;;;;;6.77;6.20;;;6.00;99.90;;;;;;4970203;28;20317;-71
2022/11/17 01:34:47;;;;;;;6.17;5.60;;;5.90;99.90;;;;;;4969757;28;20302;-72
2022/11/17 01:37:20;;;;;;;6.17;5.77;;;5.90;99.90;;;;;;4967977;28;20235;-71
2022/11/17 01:39:47;;;;;;;6.73;6.13;;;6.00;99.90;;;;;;4950511;29;20860;-71
2022/11/17 01:42:17;;;;;;;6.20;5.80;;;6.00;99.90;;;;;;4966972;28;20213;-71
2022/11/17 01:44:59;;;;;;;6.33;5.80;;;5.90;99.90;;;;;;4969614;28;20293;-71
2022/11/17 01:47:36;;;;;;;6.70;6.17;;;6.00;99.90;;;;;;4969743;28;20250;-70
2022/11/17 01:50:09;;;;;;;6.67;6.17;;;6.00;99.90;;;;;;4969872;28;20203;-70
2022/11/17 01:52:37;;;;;;;6.80;6.27;;;6.00;99.90;;;;;;4969702;28;20227;-71
2022/11/17 01:55:08;;;;;;;7.10;6.40;;;5.90;99.90;;;;;;4969266;28;20203;-71
2022/11/17 01:57:41;;;;;;;6.87;6.27;;;5.90;99.90;;;;;;4969257;28;20246;-71
2022/11/17 02:00:11;;;;;;;6.77;6.03;;;5.90;99.90;;;;;;4969048;28;20755;-71
2022/11/17 02:02:40;;;;;;;7.27;6.67;;;5.90;99.90;;;;;;4969936;28;20308;-71
2022/11/17 02:05:18;;;;;;;7.33;6.73;;;5.90;99.90;;;;;;4968460;28;20777;-73
2022/11/17 02:07:47;;;;;;;7.97;7.17;;;5.80;99.90;;;;;;4968439;28;20714;-73
2022/11/17 02:10:14;;;;;;;7.30;6.80;;;5.80;99.90;;;;;;4968967;28;20211;-73
2022/11/17 02:12:41;;;;;;;6.77;6.27;;;5.90;99.90;;;;;;4968412;28;20226;-73
2022/11/17 02:15:10;;;;;;;6.93;6.43;;;5.80;99.90;;;;;;4977322;28;20551;-73
2022/11/17 02:17:40;;;;;;;7.57;6.77;;;5.80;99.90;;;;;;4968472;28;20240;-72
2022/11/17 02:20:11;;;;;;;7.03;6.43;;;5.80;99.90;;;;;;4968279;28;20257;-72
2022/11/17 02:23:18;;;;;;;7.00;6.50;;;5.80;99.90;;;;;;4977829;28;20619;-72
2022/11/17 02:26:07;;;;;;;6.90;6.40;;;5.80;99.90;;;;;;4940988;28;20229;-72
2022/11/17 02:28:42;;;;;;;7.17;6.63;;;5.80;99.90;;;;;;4963395;28;20235;-71
2022/11/17 02:31:26;;;;;;;6.13;5.57;;;5.80;99.90;;;;;;4967949;28;20772;-71
2022/11/17 02:33:59;;;;;;;6.07;5.60;;;5.80;99.90;;;;;;4968643;28;20290;-72
2022/11/17 02:36:34;;;;;;;7.23;6.63;;;5.80;99.90;;;;;;4968052;28;20229;-71
2022/11/17 02:39:11;;;;;;;7.37;6.77;;;5.80;99.90;;;;;;4968274;28;20210;-72
2022/11/17 02:41:45;;;;;;;6.63;6.13;;;5.80;99.90;;;;;;4962047;28;20318;-71
2022/11/17 02:44:19;;;;;;;7.00;6.50;;;5.80;99.90;;;;;;4968108;28;20245;-71
2022/11/17 02:46:50;;;;;;;6.90;6.33;;;5.80;99.90;;;;;;4967787;28;20207;-71
2022/11/17 02:49:22;;;;;;;6.97;6.43;;;5.80;99.90;;;;;;4967995;28;20194;-72
2022/11/17 02:51:51;;;;;;;6.77;6.27;;;5.80;99.90;;;;;;4967475;28;20700;-72
2022/11/17 02:54:19;;;;;;;6.93;6.43;;;5.80;99.90;;;;;;4967395;28;20307;-72
2022/11/17 02:56:46;;;;;;;7.27;6.73;;;5.70;99.90;;;;;;4967761;28;20301;-72
2022/11/17 02:59:17;;;;;;;6.50;6.10;;;5.70;99.90;;;;;;4967900;28;20294;-71
2022/11/17 03:02:08;;;;;;;6.63;6.07;;;5.70;99.90;;;;;;4967036;28;20685;-72
2022/11/17 03:04:45;;;;;;;7.07;6.47;;;5.80;99.90;;;;;;4926357;28;1102273;-72
2022/11/17 03:07:25;;;;;;;6.57;6.07;;;5.70;99.90;;;;;;4969087;28;20241;-72
2022/11/17 03:09:59;;;;;;;7.10;6.50;;;5.70;99.90;;;;;;4972550;28;20195;-72
2022/11/17 03:12:34;;;;;;;7.30;6.70;;;5.70;99.90;;;;;;4972540;28;20258;-72
2022/11/17 03:15:12;;;;;;;7.23;6.63;;;5.70;99.90;;;;;;4971912;28;20281;-71
2022/11/17 03:17:47;;;;;;;7.07;6.57;;;5.70;99.90;;;;;;4959172;28;20245;-71
2022/11/17 03:20:19;;;;;;;7.37;6.77;;;5.70;99.90;;;;;;4972738;28;20194;-73
2022/11/17 03:22:51;;;;;;;6.90;6.17;;;5.70;99.90;;;;;;4972027;28;20230;-72
2022/11/17 03:25:20;;;;;;;6.53;6.03;;;5.70;99.90;;;;;;4972453;28;20566;-72
2022/11/17 03:27:49;;;;;;;7.00;6.40;;;5.60;99.90;;;;;;4971837;28;20720;-72
2022/11/17 03:30:21;;;;;;;7.03;6.43;;;5.60;99.90;;;;;;4969670;28;20297;-72
2022/11/17 03:32:52;;;;;;;7.43;6.83;;;5.60;99.90;;;;;;4963214;28;20824;-72
2022/11/17 03:35:24;;;;;;;6.40;5.90;;;5.70;99.90;;;;;;4969068;28;20242;-72
2022/11/17 03:37:55;;;;;;;7.00;6.43;;;5.70;99.90;;;;;;4969637;28;20207;-71
2022/11/17 03:40:25;;;;;;;8.90;8.20;;;5.70;99.90;;;;;;4969908;28;20277;-71
2022/11/17 03:42:55;;;;;;;8.63;7.93;;;5.70;99.90;;;;;;4969409;28;20206;-71
2022/11/17 03:45:26;;;;;;;7.33;6.73;;;5.80;99.90;;;;;;4969367;28;20305;-72
2022/11/17 03:47:58;;;;;;;6.70;6.20;;;5.80;99.90;;;;;;4961409;28;20201;-72
2022/11/17 03:50:32;;;;;;;6.67;6.07;;;5.80;99.90;;;;;;4969583;28;20972;-72
2022/11/17 03:53:00;;;;;;;7.67;7.00;;;5.80;99.90;;;;;;4969844;28;20325;-72
2022/11/17 03:55:34;;;;;;;8.07;7.23;;;5.70;99.90;;;;;;4969736;28;20286;-72
2022/11/17 03:58:06;;;;;;;6.90;6.40;;;5.70;99.90;;;;;;4969504;28;20285;-72
2022/11/17 04:00:37;;;;;;;6.47;6.00;;;5.70;99.90;;;;;;4969166;28;20209;-73
2022/11/17 04:03:04;;;;;;;7.63;7.00;;;5.60;99.90;;;;;;4969565;28;20229;-72
2022/11/17 04:05:31;;;;;;;7.40;6.87;;;5.70;99.90;;;;;;4968713;28;20321;-72
2022/11/17 04:07:58;;;;;;;7.50;6.87;;;5.70;99.90;;;;;;4967996;28;20297;-72
2022/11/17 04:10:25;;;;;;;7.30;6.70;;;5.70;99.90;;;;;;4970585;28;20294;-72
2022/11/17 04:15:57;;;;;;;6.17;5.77;;;5.70;99.90;;;;;;4950790;29;20331;-72
2022/11/17 04:18:25;;;;;;;6.10;5.70;;;5.70;99.90;;;;;;4950589;28;20210;-72
2022/11/17 04:20:54;;;;;;;6.97;6.27;;;5.70;99.90;;;;;;4950589;28;21022;-72
2022/11/17 04:23:22;;;;;;;6.93;6.23;;;5.60;99.90;;;;;;4950791;28;20295;-72
2022/11/17 04:28:37;;;;;;;7.13;6.53;;;5.60;99.90;;;;;;4951422;29;20686;-72
2022/11/17 04:31:08;;;;;;;6.83;6.13;;;5.60;99.90;;;;;;4968653;28;20295;-72
2022/11/17 04:33:35;;;;;;;7.97;6.27;;;5.60;99.90;;;;;;4970525;28;20730;-72
2022/11/17 04:36:03;;;;;;;7.10;6.50;;;5.60;99.90;;;;;;4970887;28;20329;-72
2022/11/17 04:38:30;;;;;;;6.60;6.10;;;5.60;99.90;;;;;;4970479;28;20674;-72
2022/11/17 04:43:46;;;;;;;6.60;6.10;;;5.60;99.90;;;;;;4970560;28;20350;-72
2022/11/17 04:46:15;;;;;;;7.00;6.40;;;5.70;99.90;;;;;;4970354;28;20211;-72
2022/11/17 04:48:42;;;;;;;7.30;6.60;;;5.60;99.90;;;;;;4970038;28;20685;-72
2022/11/17 04:51:09;;;;;;;6.63;6.13;;;5.60;99.90;;;;;;4970366;28;20305;-72
2022/11/17 04:53:36;;;;;;;6.70;6.20;;;5.60;99.90;;;;;;4970509;28;20266;-72
2022/11/17 04:56:04;;;;;;;6.60;6.10;;;5.70;99.90;;;;;;4970504;28;20215;-72
2022/11/17 04:58:31;;;;;;;7.33;6.73;;;5.60;99.90;;;;;;4970616;28;20211;-72
2022/11/17 05:01:11;;;;;;;7.53;6.83;;;5.60;99.90;;;;;;4987636;28;20245;-72
2022/11/17 05:03:40;;;;;;;6.50;6.00;;;5.60;99.90;;;;;;4989312;28;20236;-72
2022/11/17 05:06:07;;;;;;;7.40;6.70;;;5.70;99.90;;;;;;4971096;28;20242;-72
2022/11/17 05:08:36;;;;;;;7.17;6.57;;;5.60;99.90;;;;;;4962660;28;20300;-72
2022/11/17 05:13:49;;;;;;;7.43;6.73;;;5.70;99.90;;;;;;4969703;28;20229;-72
2022/11/17 05:19:03;;;;;;;7.43;6.73;;;5.60;99.90;;;;;;4969695;28;20198;-72
2022/11/17 05:21:30;;;;;;;7.30;6.70;;;5.60;99.90;;;;;;4970117;28;20294;-72
2022/11/17 05:23:56;;;;;;;7.43;6.83;;;5.60;99.90;;;;;;4969434;28;20213;-72
2022/11/17 05:26:25;;;;;;;6.97;6.47;;;5.60;99.90;;;;;;4969961;28;20202;-72
2022/11/17 05:28:54;;;;;;;7.97;7.27;;;5.60;99.90;;;;;;4969338;28;20640;-72
2022/11/17 05:31:21;;;;;;;7.30;6.70;;;5.60;99.90;;;;;;4949581;28;20242;-72
2022/11/17 05:33:48;;;;;;;8.43;7.40;;;5.60;99.90;;;;;;4949806;28;20326;-72
2022/11/17 05:36:17;;;;;;;8.17;7.47;;;5.50;99.90;;;;;;4963156;28;20301;-72
2022/11/17 05:38:45;;;;;;;8.20;7.50;;;5.50;99.90;;;;;;4969201;28;20215;-72
2022/11/17 05:41:12;;;;;;;7.57;6.97;;;5.60;99.90;;;;;;4969612;28;20261;-72
2022/11/17 05:43:39;;;;;;;8.03;7.30;;;5.60;99.90;;;;;;4969107;28;20297;-72
2022/11/17 05:46:06;;;;;;;8.43;7.63;;;5.60;99.90;;;;;;4969408;28;20302;-72
2022/11/17 05:48:33;;;;;;;8.23;7.47;;;5.60;99.90;;;;;;4969568;28;20230;-72
2022/11/17 05:51:00;;;;;;;8.07;7.37;;;5.60;99.90;;;;;;4969531;28;20221;-72
2022/11/17 05:53:29;;;;;;;7.83;7.23;;;5.50;99.90;;;;;;4969287;28;20238;-72
2022/11/17 05:56:13;;;;;;;8.17;7.47;;;5.50;99.90;;;;;;4969424;28;20290;-72
2022/11/17 05:58:43;;;;;;;8.53;7.73;;;5.50;99.90;;;;;;4969369;28;20203;-72
2022/11/17 06:01:13;;;;;;;8.07;7.47;;;5.60;99.90;;;;;;4958163;28;20209;-72
2022/11/17 06:03:44;;;;;;;7.90;7.20;;;5.50;99.90;;;;;;4968861;28;20313;-72
2022/11/17 06:06:12;;;;;;;8.10;7.27;;;5.50;99.90;;;;;;4968883;28;20333;-72
2022/11/17 06:08:41;;;;;;;8.10;7.40;;;5.50;99.90;;;;;;4967709;28;20215;-72
2022/11/17 06:11:08;;;;;;;7.73;7.13;;;5.50;99.90;;;;;;4969176;28;20656;-72
2022/11/17 06:13:35;;;;;;;7.73;7.03;;;5.60;99.90;;;;;;4969069;28;20952;-72
2022/11/17 06:16:05;;;;;;;8.43;7.73;;;5.60;99.90;;;;;;4968813;28;20211;-72
2022/11/17 06:18:37;;;;;;;8.03;7.33;;;5.60;99.90;;;;;;4968949;28;20847;-72
2022/11/17 06:21:05;;;;;;;8.00;7.33;;;5.60;99.90;;;;;;4968774;28;20297;-72
2022/11/17 06:23:34;;;;;;;7.90;7.10;;;5.60;99.90;;;;;;4968793;28;20294;-73
2022/11/17 06:26:07;;;;;;;8.10;7.40;;;5.60;99.90;;;;;;4968708;28;20261;-72
2022/11/17 06:28:35;;;;;;;8.03;7.43;;;5.60;99.90;;;;;;4968811;28;20194;-72
2022/11/17 06:31:02;;;;;;;8.43;7.67;;;5.60;99.90;;;;;;4968748;28;20302;-72
2022/11/17 06:33:30;;;;;;;7.57;6.97;;;5.60;99.90;;;;;;4968871;28;20604;-72
2022/11/17 06:36:00;;;;;;;7.47;6.80;;;5.60;99.90;;;;;;4968490;28;20745;-72
2022/11/17 06:38:28;;;;;;;7.77;7.17;;;5.60;99.90;;;;;;4968747;28;20209;-72
2022/11/17 06:40:58;;;;;;;8.27;7.63;;;5.60;99.90;;;;;;4968611;28;20717;-72
2022/11/17 06:43:26;;;;;;;7.03;6.43;;;5.70;99.90;;;;;;4968873;28;20290;-72
2022/11/17 06:45:53;;;;;;;7.90;7.30;;;5.70;99.90;;;;;;4968410;28;20297;-72
2022/11/17 06:48:25;;;;;;;7.20;6.70;;;5.60;99.90;;;;;;4968661;28;20569;-72
2022/11/17 06:50:52;;;;;;;7.53;6.87;;;5.60;99.90;;;;;;4968662;28;20198;-72
2022/11/17 06:53:21;;;;;;;7.33;6.63;;;5.70;99.90;;;;;;4968476;28;20234;-72
2022/11/17 06:55:50;;;;;;;7.67;7.00;;;5.70;99.90;;;;;;4968510;28;20203;-73
2022/11/17 06:58:17;;;;;;;7.80;7.20;;;5.70;99.90;;;;;;4968614;28;20206;-72
2022/11/17 07:00:46;;;;;;;7.10;6.60;;;5.70;99.90;;;;;;4983873;28;20736;-72
2022/11/17 07:03:13;;;;;;;7.67;6.97;;;5.80;99.90;;;;;;4976597;28;20261;-72
2022/11/17 07:05:40;;;;;;;7.00;6.50;;;5.80;99.90;;;;;;4968030;28;20281;-72
2022/11/17 07:08:08;;;;;;;7.10;6.50;;;5.80;99.90;;;;;;4968604;28;20627;-72
2022/11/17 07:10:36;;;;;;;7.07;6.57;;;5.80;99.90;;;;;;4968543;28;20253;-72
2022/11/17 07:13:03;;;;;;;7.33;6.73;;;5.80;99.90;;;;;;4968546;28;20357;-72
2022/11/17 07:15:30;;;;;;;7.20;6.60;;;5.70;99.90;;;;;;4968309;28;20242;-72
2022/11/17 07:17:58;;;;;;;6.73;6.23;;;5.70;99.90;;;;;;4968008;28;20303;-73
2022/11/17 07:20:25;;;;;;;7.33;6.73;;;5.80;99.90;;;;;;4968469;28;20305;-72
2022/11/17 07:22:57;;;;;;;7.77;7.10;;;5.80;99.90;;;;;;4968424;28;20217;-72
2022/11/17 07:25:24;;;;;;;7.43;6.83;;;5.80;99.90;;;;;;4968559;28;20286;-72
2022/11/17 07:27:57;;;;;;;7.33;6.80;;;5.80;99.90;;;;;;4968124;28;20211;-72
2022/11/17 07:30:24;;;;;;;8.00;7.20;;;5.80;99.90;;;;;;4968390;28;20203;-72
2022/11/17 07:32:51;;;;;;;6.93;6.43;;;5.80;99.90;;;;;;4968004;28;20245;-72
2022/11/17 07:35:19;;;;;;;7.33;6.63;;;5.80;99.90;;;;;;4968363;28;20265;-72
2022/11/17 07:37:46;;;;;;;7.33;6.73;;;5.80;99.90;;;;;;4967817;28;20298;-72
2022/11/17 07:40:13;;;;;;;6.90;6.33;;;5.80;99.90;;;;;;4968398;28;20821;-72
2022/11/17 07:42:40;;;;;;;7.33;6.83;;;5.80;99.90;;;;;;4968064;28;20238;-72
2022/11/17 07:45:08;;;;;;;7.50;6.87;;;5.80;99.90;;;;;;4968070;28;20301;-72
2022/11/17 07:47:35;;;;;;;7.00;6.40;;;5.80;99.90;;;;;;4968308;28;20265;-72
2022/11/17 07:50:03;;;;;;;7.10;6.50;;;5.80;99.90;;;;;;4967913;28;20677;-72
2022/11/17 07:52:31;;;;;;;7.27;6.70;;;5.80;99.90;;;;;;4968477;28;20214;-72
2022/11/17 07:54:58;;;;;;;7.27;6.60;;;5.80;99.90;;;;;;4970850;28;20226;-72
2022/11/17 07:57:27;;;;;;;6.77;6.27;;;5.90;99.90;;;;;;4971382;28;20301;-72
2022/11/17 07:59:54;;;;;;;6.50;6.00;;;5.90;99.90;;;;;;4980566;28;20256;-72
2022/11/17 08:02:21;;;;;;;6.77;6.20;;;5.90;99.90;;;;;;4990956;28;20269;-72
2022/11/17 08:04:48;;;;;;;6.70;6.10;;;5.80;99.90;;;;;;4990395;28;20997;-72
2022/11/17 08:07:15;;;;;;;6.70;6.20;;;5.80;99.90;;;;;;4988757;28;20298;-72
2022/11/17 08:09:43;;;;;;;6.23;5.73;;;5.80;99.90;;;;;;4971147;28;20776;-72
2022/11/17 08:12:10;;;;;;;7.03;6.50;;;5.80;99.90;;;;;;4970908;28;20301;-72
2022/11/17 08:14:37;;;;;;;6.10;5.50;;;5.80;99.90;;;;;;4970534;28;20326;-72
2022/11/17 08:17:03;;;;;;;6.17;5.67;;;5.80;99.90;;;;;;4970921;28;20214;-72
2022/11/17 08:19:30;;;;;;;10.43;5.90;;;5.90;99.90;;;;;;4970849;28;20664;-72
2022/11/17 08:21:57;;;;;;;7.30;6.60;;;5.90;99.90;;;;;;4971059;28;20351;-72
2022/11/17 08:24:24;;;;;;;7.53;6.20;;;5.90;99.90;;;;;;4971409;28;20215;-72
2022/11/17 08:26:53;;;;;;;6.73;6.10;;;5.90;99.90;;;;;;4971171;28;20302;-72
2022/11/17 08:29:20;;;;;;;6.53;6.03;;;5.90;99.90;;;;;;4970857;28;20660;-72
2022/11/17 08:31:47;;;;;;;6.67;6.17;;;5.90;99.90;;;;;;4970708;28;20297;-72
2022/11/17 08:34:14;;;;;;;7.27;5.57;;;6.00;99.90;;;;;;4971111;28;20231;-72
2022/11/17 08:36:41;;;;;;;7.27;6.63;;;5.90;99.90;;;;;;4970970;28;20537;-72
2022/11/17 08:39:08;;;;;;;6.67;6.17;;;5.90;99.90;;;;;;4953776;28;20309;-72
2022/11/17 08:41:34;;;;;;;6.77;5.97;;;6.00;99.90;;;;;;4951793;29;20243;-72
2022/11/17 08:44:03;;;;;;;6.30;5.90;;;5.90;99.90;;;;;;4951520;29;20319;-72
2022/11/17 08:46:30;;;;;;;6.47;5.97;;;5.90;99.90;;;;;;4951331;29;20246;-72
2022/11/17 08:48:57;;;;;;;6.67;6.17;;;6.00;99.90;;;;;;4952048;28;20665;-72
2022/11/17 08:51:24;;;;;;;6.73;6.13;;;6.00;99.90;;;;;;4970436;28;20305;-72
2022/11/17 08:53:50;;;;;;;6.50;6.00;;;6.00;99.90;;;;;;4970354;28;20563;-72
2022/11/17 08:56:18;;;;;;;7.00;6.40;;;6.00;99.90;;;;;;4970837;28;20211;-72
2022/11/17 08:58:45;;;;;;;6.37;5.87;;;6.00;99.90;;;;;;4970597;28;20293;-72
2022/11/17 09:01:15;;;;;;;6.80;6.20;;;6.00;99.90;;;;;;4990088;28;20609;-72
2022/11/17 09:03:44;;;;;;;6.90;6.40;;;6.00;99.90;;;;;;4990063;28;20230;-72
2022/11/17 09:06:11;;;;;;;7.17;6.57;;;6.00;99.90;;;;;;4988866;28;20238;-72
2022/11/17 09:08:38;;;;;;;7.37;6.57;;;6.00;99.90;;;;;;4976694;28;20302;-72
2022/11/17 09:11:06;;;;;;;7.87;7.07;;;6.00;99.90;;;;;;4970479;28;20409;-73
2022/11/17 09:13:34;;;;;;;7.27;6.67;;;5.90;99.90;;;;;;4970444;28;20234;-72
2022/11/17 09:16:02;;;;;;;7.20;6.60;;;5.90;99.90;;;;;;4970238;28;20293;-72
2022/11/17 09:18:30;;;;;;;7.87;7.00;;;6.00;99.90;;;;;;4970271;28;21054;-72
2022/11/17 09:21:00;;;;;;;11.60;7.20;;;6.00;99.90;;;;;;4969988;28;20329;-72
2022/11/17 09:23:28;;;;;;;8.00;7.30;;;5.90;99.90;;;;;;4970072;28;20206;-72
2022/11/17 09:25:56;;;;;;;7.60;6.97;;;5.90;99.90;;;;;;4970048;28;20207;-71
2022/11/17 09:28:24;;;;;;;9.33;7.63;;;5.90;99.90;;;;;;4970149;28;20716;-71
2022/11/17 09:30:52;;;;;;;8.20;7.40;;;6.00;99.90;;;;;;4969663;28;20218;-72
2022/11/17 09:33:19;;;;;;;8.83;7.30;;;6.00;99.90;;;;;;4969530;28;20582;-72
2022/11/17 09:35:47;;;;;;;8.83;7.93;;;6.00;99.90;;;;;;4969419;28;20662;-72
2022/11/17 09:38:14;;;;;;;11.57;7.83;;;6.00;99.90;;;;;;4969410;28;20210;-72
2022/11/17 09:40:41;;;;;;;8.50;7.70;;;6.00;99.90;;;;;;4969580;28;20325;-72
2022/11/17 09:43:20;;;;;;;8.67;7.73;;;6.00;99.90;;;;;;4969641;28;20649;-71
2022/11/17 09:45:49;;;;;;;8.47;7.53;;;6.00;99.90;;;;;;4969357;28;20191;-71
2022/11/17 09:48:21;;;;;;;8.10;7.43;;;6.00;99.90;;;;;;4969676;28;20646;-71
2022/11/17 09:50:50;;;;;;;8.77;7.97;;;6.00;99.90;;;;;;4969084;28;20211;-72
2022/11/17 09:53:24;;;;;;;9.23;8.43;;;6.00;99.90;;;;;;4969546;28;20257;-72
2022/11/17 09:55:57;;;;;;;8.10;7.40;;;6.00;99.90;;;;;;4968890;28;20302;-72
2022/11/17 09:58:32;;;;;;;9.50;8.33;;;6.00;99.90;;;;;;4969302;28;20333;-71
2022/11/17 10:01:00;;;;;;;9.57;8.67;;;6.00;99.90;;;;;;4986945;28;20256;-72
2022/11/17 10:03:31;;;;;;;9.70;8.70;;;6.00;99.90;;;;;;4988350;28;20309;-72
2022/11/17 10:06:05;;;;;;;10.47;8.53;;;5.90;99.90;;;;;;4987906;28;20304;-72
2022/11/17 10:08:46;;;;;;;9.40;8.47;;;5.90;99.90;;;;;;4976133;28;20294;-72
2022/11/17 10:11:33;;;;;;;9.47;8.57;;;5.90;99.90;;;;;;4969698;28;20250;-72
2022/11/17 10:14:11;;;;;;;9.97;8.97;;;5.90;99.90;;;;;;4968614;28;20707;-71
2022/11/17 10:16:41;;;;;;;9.93;8.90;;;6.00;99.90;;;;;;4968820;28;20226;-72
2022/11/17 10:19:15;;;;;;;9.43;8.43;;;6.00;99.90;;;;;;4969344;28;20629;-72
2022/11/17 10:21:44;;;;;;;10.40;9.40;;;6.00;99.90;;;;;;4968978;28;20203;-72
2022/11/17 10:24:11;;;;;;;10.70;9.70;;;6.00;99.90;;;;;;4968723;28;20222;-71
2022/11/17 10:26:46;;;;;;;12.13;9.40;;;6.00;99.90;;;;;;4969522;28;20323;-72
2022/11/17 10:29:14;;;;;;;10.03;9.03;;;6.00;99.90;;;;;;4969245;28;21103;-72
2022/11/17 10:31:44;;;;;;;11.30;9.17;;;6.00;99.90;;;;;;4968522;28;20310;-71
2022/11/17 10:34:12;;;;;;;10.23;9.13;;;6.00;99.90;;;;;;4968989;28;20353;-72
2022/11/17 10:36:48;;;;;;;11.10;9.50;;;6.00;99.90;;;;;;4968964;28;20292;-72
2022/11/17 10:39:33;;;;;;;10.07;9.07;;;6.00;99.90;;;;;;4969098;28;20309;-72
2022/11/17 10:42:13;;;;;;;10.23;9.23;;;6.00;99.90;;;;;;4968557;28;20909;-72
2022/11/17 10:44:42;;;;;;;9.53;8.60;;;6.00;99.90;;;;;;4968654;28;20297;-72
2022/11/17 10:47:26;;;;;;;9.67;8.77;;;6.00;99.90;;;;;;4971045;28;20285;-71
2022/11/17 10:50:07;;;;;;;10.47;9.47;;;6.00;99.90;;;;;;4987787;28;20232;-72
2022/11/17 10:52:36;;;;;;;9.80;8.80;;;6.00;99.90;;;;;;4988070;28;20202;-72
2022/11/17 10:55:22;;;;;;;9.70;8.80;;;6.10;99.90;;;;;;4987824;28;20237;-72
2022/11/17 10:57:53;;;;;;;9.97;9.00;;;6.10;99.90;;;;;;4987779;28;20289;-72
2022/11/17 11:00:26;;;;;;;9.83;8.70;;;6.00;99.90;;;;;;4975153;28;20298;-72
2022/11/17 11:03:15;;;;;;;10.07;8.80;;;6.10;99.90;;;;;;4967692;28;20226;-72
2022/11/17 11:05:59;;;;;;;10.73;9.37;;;6.00;99.90;;;;;;4967778;28;20235;-72
2022/11/17 11:08:44;;;;;;;9.93;8.93;;;6.00;99.90;;;;;;4968129;28;20210;-72
2022/11/17 11:11:20;;;;;;;9.00;8.20;;;6.00;99.90;;;;;;4968550;28;20211;-72
2022/11/17 11:13:52;;;;;;;10.50;8.67;;;6.00;99.90;;;;;;4968517;28;20245;-72
2022/11/17 11:16:19;;;;;;;10.20;8.10;;;6.00;99.90;;;;;;4968097;28;20197;-72
2022/11/17 11:18:52;;;;;;;8.83;7.60;;;6.00;99.90;;;;;;4968496;28;20207;-72
2022/11/17 11:21:33;;;;;;;9.20;8.40;;;6.00;99.90;;;;;;4949445;29;20196;-72
2022/11/17 11:24:09;;;;;;;9.60;8.70;;;6.00;99.90;;;;;;4948967;28;20403;-72
2022/11/17 11:26:47;;;;;;;8.97;8.07;;;6.00;99.90;;;;;;4949162;28;20203;-72
2022/11/17 11:29:26;;;;;;;8.97;8.17;;;6.00;99.90;;;;;;4951459;28;20242;-71
2022/11/17 11:32:03;;;;;;;10.80;8.23;;;6.00;99.90;;;;;;4952186;28;20286;-72
2022/11/17 11:34:46;;;;;;;9.37;8.40;;;6.10;99.90;;;;;;4952345;28;20235;-72
2022/11/17 11:37:15;;;;;;;9.27;8.37;;;6.10;99.90;;;;;;4954498;28;20231;-72
2022/11/17 11:39:54;;;;;;;8.97;8.07;;;6.10;99.90;;;;;;4971595;28;20211;-72
2022/11/17 11:42:45;;;;;;;8.87;8.10;;;6.10;99.90;;;;;;4971923;28;20214;-72
2022/11/17 11:45:24;;;;;;;8.60;7.80;;;6.00;99.90;;;;;;4969100;28;20226;-73
2022/11/17 11:48:21;;;;;;;8.50;7.70;;;6.00;99.90;;;;;;4971646;28;20286;-72
2022/11/17 11:50:57;;;;;;;9.20;8.30;;;6.10;99.90;;;;;;4959213;28;20221;-72
2022/11/17 11:53:30;;;;;;;9.80;8.80;;;6.10;99.90;;;;;;4971744;28;20210;-72
2022/11/17 11:56:14;;;;;;;8.27;7.50;;;6.10;99.90;;;;;;4971698;28;20242;-72
2022/11/17 11:58:46;;;;;;;8.40;7.50;;;6.10;99.90;;;;;;4971978;28;20504;-72
2022/11/17 12:01:17;;;;;;;9.20;8.30;;;6.10;99.90;;;;;;4952462;28;20215;-72
2022/11/17 12:03:51;;;;;;;7.53;6.90;;;6.00;99.90;;;;;;4952126;28;20263;-72
2022/11/17 12:06:40;;;;;;;8.63;7.80;;;6.10;99.90;;;;;;4952056;29;20249;-72
2022/11/17 12:09:54;;;;;;;7.70;7.00;;;6.00;99.90;;;;;;4969033;28;20301;-72
2022/11/17 12:12:29;;;;;;;8.00;7.30;;;6.10;99.90;;;;;;4911500;29;20300;-72
2022/11/17 12:15:31;;;;;;;8.20;7.43;;;6.10;99.90;;;;;;4959567;28;20324;-72
2022/11/17 12:18:01;;;;;;;8.07;7.27;;;6.00;99.90;;;;;;4951948;28;20281;-72
2022/11/17 12:20:49;;;;;;;8.57;7.83;;;6.10;99.90;;;;;;4951914;28;20757;-72
2022/11/17 12:23:26;;;;;;;8.27;7.40;;;6.00;99.90;;;;;;4951878;28;20216;-73
2022/11/17 12:25:56;;;;;;;9.23;7.70;;;6.10;99.90;;;;;;4951520;28;20783;-72
2022/11/17 12:28:32;;;;;;;7.97;7.17;;;6.10;99.90;;;;;;4951829;28;20247;-72
2022/11/17 12:31:01;;;;;;;7.60;6.93;;;6.10;99.90;;;;;;4951664;28;20202;-72
2022/11/17 12:34:07;;;;;;;7.60;6.90;;;6.10;99.90;;;;;;4951684;28;20298;-71
2022/11/17 12:36:35;;;;;;;7.50;6.90;;;6.10;99.90;;;;;;4966490;28;20213;-72
2022/11/17 12:39:05;;;;;;;8.00;7.40;;;6.10;99.90;;;;;;4970426;28;20313;-72
2022/11/17 12:42:08;;;;;;;8.23;7.43;;;6.10;99.90;;;;;;4971026;28;20207;-72
2022/11/17 12:44:56;;;;;;;7.73;7.03;;;6.10;99.90;;;;;;4970612;28;20218;-72
2022/11/17 12:47:26;;;;;;;8.33;7.53;;;6.10;99.90;;;;;;4970942;28;20211;-72
2022/11/17 12:50:18;;;;;;;7.73;7.10;;;6.10;99.90;;;;;;4970617;28;20273;-72
2022/11/17 12:52:58;;;;;;;7.47;6.70;;;6.10;99.90;;;;;;4970095;28;20207;-72
2022/11/17 12:55:38;;;;;;;7.93;7.13;;;6.10;99.90;;;;;;4970015;28;20233;-72
2022/11/17 12:58:17;;;;;;;7.67;6.97;;;6.10;99.90;;;;;;4970606;28;20286;-72
2022/11/17 13:00:57;;;;;;;7.50;6.87;;;6.10;99.90;;;;;;4986130;28;20629;-72
2022/11/17 13:03:33;;;;;;;7.63;7.00;;;6.10;99.90;;;;;;4983926;28;20317;-71
2022/11/17 13:06:07;;;;;;;7.20;6.60;;;6.10;99.90;;;;;;4970006;28;20803;-72
2022/11/17 13:08:35;;;;;;;7.30;6.60;;;6.10;99.90;;;;;;4970496;28;20218;-72
2022/11/17 13:11:06;;;;;;;7.63;6.83;;;6.10;99.90;;;;;;4970083;28;20207;-72
2022/11/17 13:13:33;;;;;;;7.23;6.73;;;6.10;99.90;;;;;;4970032;28;20215;-72
2022/11/17 13:16:01;;;;;;;10.77;7.13;;;6.10;99.90;;;;;;4969651;28;20329;-72
2022/11/17 13:18:31;;;;;;;8.20;7.40;;;6.10;99.90;;;;;;4970362;28;20298;-72
2022/11/17 13:20:59;;;;;;;8.50;7.80;;;6.10;99.90;;;;;;4970084;28;20658;-72
2022/11/17 13:23:27;;;;;;;7.20;6.70;;;6.10;99.90;;;;;;4970130;28;20253;-72
2022/11/17 13:26:18;;;;;;;8.50;7.70;;;6.10;99.90;;;;;;4969618;28;20223;-72
2022/11/17 13:28:46;;;;;;;7.20;6.60;;;6.10;99.90;;;;;;4969752;28;20971;-72
2022/11/17 13:31:18;;;;;;;8.53;7.63;;;6.00;99.90;;;;;;4969720;28;20213;-72
2022/11/17 13:34:08;;;;;;;7.60;6.90;;;6.10;99.90;;;;;;4969972;28;20245;-72
2022/11/17 13:36:35;;;;;;;7.33;6.73;;;6.10;99.90;;;;;;4957746;28;20210;-71
2022/11/17 13:39:03;;;;;;;7.00;6.40;;;6.10;99.90;;;;;;4969978;28;20211;-72
2022/11/17 13:41:37;;;;;;;7.00;6.30;;;6.10;99.90;;;;;;4969861;28;20298;-72